Time;durP1;ratioP1;P1;durP2;ratioP2;P2;SDS_P1;SDS_P2;PMS_P1;PMS_P2;Temp;Humidity;BMP_temperature;BMP_pressure;BME280_temperature;BME280_humidity;BME280_pressure;Samples;Min_cycle;Max_cycle;Signal;HPM_P1;HPM_P2
2022/12/27 00:01:39;;;;;;;1.82;1.20;;;;;;;8.34;100.00;100181.03;2989971;78;21010;-87
2022/12/27 00:05:46;;;;;;;2.12;1.12;;;;;;;8.11;100.00;100190.20;3019973;78;21014;-88
2022/12/27 00:09:47;;;;;;;2.08;0.98;;;;;;;8.01;100.00;100191.81;3044320;76;21056;-87
2022/12/27 00:13:49;;;;;;;5.28;0.93;;;;;;;7.97;100.00;100187.23;2901653;77;21007;-88
2022/12/27 00:17:50;;;;;;;0.80;0.65;;;;;;;7.94;100.00;100202.50;3048215;77;21667;-87
2022/12/27 00:21:52;;;;;;;5.37;0.93;;;;;;;7.83;100.00;100219.98;3005516;77;20987;-88
2022/12/27 00:26:17;;;;;;;1.02;0.85;;;;;;;7.85;100.00;100224.70;2984642;78;22286;-88
2022/12/27 00:30:18;;;;;;;2.55;0.88;;;;;;;7.72;100.00;100234.48;3019995;77;21049;-87
2022/12/27 00:34:20;;;;;;;2.77;1.25;;;;;;;7.75;100.00;100226.33;3008397;77;21049;-89
2022/12/27 00:38:21;;;;;;;3.45;1.35;;;;;;;7.58;100.00;100240.27;2988216;78;21054;-88
2022/12/27 00:42:22;;;;;;;2.02;1.75;;;;;;;7.49;100.00;100243.58;2974180;78;20987;-88
2022/12/27 00:46:24;;;;;;;1.17;1.07;;;;;;;7.49;100.00;100242.72;2966042;77;21539;-89
2022/12/27 00:50:25;;;;;;;3.52;1.98;;;;;;;7.50;100.00;100248.38;2950258;78;21030;-89
2022/12/27 00:54:27;;;;;;;5.87;2.15;;;;;;;7.47;100.00;100267.13;3007585;78;20995;-88
2022/12/27 00:58:28;;;;;;;1.72;1.07;;;;;;;7.42;100.00;100271.41;2991718;78;21611;-88
2022/12/27 01:02:29;;;;;;;5.17;2.30;;;;;;;7.40;100.00;100294.48;2989336;77;21363;-87
2022/12/27 01:06:33;;;;;;;3.33;2.30;;;;;;;7.48;100.00;100286.02;2996479;77;21007;-88
2022/12/27 01:10:35;;;;;;;1.80;1.32;;;;;;;7.47;100.00;100299.75;3002731;77;21048;-88
2022/12/27 01:14:36;;;;;;;2.02;1.07;;;;;;;7.43;100.00;100314.98;2991515;78;21061;-88
2022/12/27 01:18:37;;;;;;;1.70;1.00;;;;;;;7.46;100.00;100304.64;3010803;77;21093;-88
2022/12/27 01:22:39;;;;;;;3.27;1.15;;;;;;;7.51;100.00;100326.83;2999433;77;21030;-88
2022/12/27 01:26:40;;;;;;;2.27;1.72;;;;;;;7.35;100.00;100341.59;3006731;78;20987;-88
2022/12/27 01:30:41;;;;;;;2.10;1.10;;;;;;;7.34;100.00;100338.58;2990731;78;21562;-88
2022/12/27 01:34:43;;;;;;;7.62;1.57;;;;;;;7.18;100.00;100339.59;2983163;77;20978;-87
2022/12/27 01:38:46;;;;;;;1.52;1.32;;;;;;;7.20;100.00;100354.89;2924391;78;21538;-87
2022/12/27 01:42:54;;;;;;;1.85;0.88;;;;;;;7.28;100.00;100370.26;3009450;78;21542;-87
2022/12/27 01:46:56;;;;;;;2.77;1.00;;;;;;;7.23;100.00;100377.66;2936086;78;20983;-87
2022/12/27 01:51:02;;;;;;;0.70;0.70;;;;;;;7.29;100.00;100386.05;2954860;78;21472;-87
2022/12/27 01:55:15;;;;;;;3.25;1.42;;;;;;;7.25;100.00;100390.31;2997150;77;21094;-87
2022/12/27 01:59:17;;;;;;;1.72;0.78;;;;;;;7.26;100.00;100393.33;2970751;79;20994;-87
2022/12/27 02:03:29;;;;;;;1.27;1.00;;;;;;;7.26;100.00;100408.72;3008200;78;21065;-87
2022/12/27 02:07:38;;;;;;;4.50;1.77;;;;;;;7.17;100.00;100414.62;2947676;79;21033;-87
2022/12/27 02:11:50;;;;;;;2.47;1.05;;;;;;;7.10;100.00;100409.38;2989161;78;21014;-87
2022/12/27 02:15:51;;;;;;;4.87;0.98;;;;;;;7.07;100.00;100417.48;2973058;78;20967;-87
2022/12/27 02:20:18;;;;;;;1.60;0.80;;;;;;;7.13;100.00;100436.45;3002243;77;21022;-87
2022/12/27 02:24:57;;;;;;;5.58;1.57;;;;;;;7.14;100.00;100430.22;2987202;78;22075;-88
2022/12/27 02:29:16;;;;;;;1.15;1.05;;;;;;;7.16;100.00;100435.42;2992158;78;21026;-87
2022/12/27 02:33:25;;;;;;;3.20;1.42;;;;;;;7.17;100.00;100425.21;3019340;77;21649;-87
2022/12/27 02:37:31;;;;;;;4.08;2.20;;;;;;;7.06;100.00;100440.92;2950925;79;20982;-87
2022/12/27 03:05:12;;;;;;;4.40;1.95;;;;;;;6.50;95.95;100501.27;2865359;80;21019;-87
2022/12/27 03:19:13;;;;;;;2.25;1.35;;;;;;;6.24;99.21;100536.70;2927337;79;21042;-86
2022/12/27 03:27:37;;;;;;;2.98;1.27;;;;;;;6.10;100.00;100537.08;2843472;81;21593;-87
2022/12/27 03:45:07;;;;;;;4.08;1.87;;;;;;;5.74;93.86;100554.55;2983505;76;21022;-86
2022/12/27 03:49:37;;;;;;;6.72;1.87;;;;;;;5.82;94.50;100559.77;3011139;76;21049;-87
2022/12/27 03:53:42;;;;;;;9.73;2.27;;;;;;;5.74;93.65;100573.02;2997749;78;21561;-87
2022/12/27 03:57:44;;;;;;;9.00;2.00;;;;;;;5.61;93.01;100571.55;2985170;79;21604;-85
2022/12/27 04:01:45;;;;;;;6.35;1.70;;;;;;;5.64;93.46;100570.05;2974581;77;21042;-86
2022/12/27 04:05:46;;;;;;;7.15;1.42;;;;;;;5.60;93.53;100573.81;2980870;78;22431;-88
2022/12/27 04:35:46;;;;;;;3.27;1.65;;;;;;;4.89;96.14;100629.46;3000016;79;21019;-88
2022/12/27 04:54:55;;;;;;;3.10;1.80;;;;;;;4.89;96.71;100636.05;3001095;78;21051;-88
2022/12/27 04:56:53;;;;;;;5.25;2.42;;;;;;;4.93;96.64;100648.16;2941324;79;21000;-87
2022/12/27 05:05:20;;;;;;;5.03;1.98;;;;;;;5.00;96.22;100660.08;3000390;78;21035;-88
2022/12/27 05:14:00;;;;;;;4.42;1.60;;;;;;;5.09;95.73;100671.06;2965882;78;21074;-87
2022/12/27 05:18:02;;;;;;;2.92;1.55;;;;;;;5.10;94.93;100671.45;2969805;78;20993;-87
2022/12/27 05:26:27;;;;;;;9.58;2.80;;;;;;;5.03;95.64;100693.81;2977008;78;21157;-87
2022/12/27 05:30:28;;;;;;;5.00;2.50;;;;;;;5.05;95.25;100695.89;2976698;79;21525;-87
2022/12/27 05:34:30;;;;;;;6.33;3.08;;;;;;;5.04;95.56;100682.33;2978153;78;20975;-87
2022/12/27 05:38:31;;;;;;;3.75;1.85;;;;;;;5.03;95.46;100697.31;2986280;77;21483;-88
2022/12/27 05:42:32;;;;;;;6.62;1.70;;;;;;;5.05;95.44;100699.40;2987737;77;20991;-87
2022/12/27 05:46:34;;;;;;;6.15;2.30;;;;;;;5.04;95.24;100686.28;2982138;77;21070;-87
2022/12/27 05:50:35;;;;;;;5.75;2.40;;;;;;;4.96;94.96;100709.95;2998456;78;20995;-88
2022/12/27 05:54:37;;;;;;;7.05;2.70;;;;;;;4.95;95.20;100708.25;2997613;77;20998;-88
2022/12/27 05:58:38;;;;;;;2.83;1.82;;;;;;;4.90;94.80;100719.48;2901438;81;21065;-88
2022/12/27 06:02:41;;;;;;;3.75;2.05;;;;;;;4.86;94.86;100706.07;2909757;79;21034;-87
2022/12/27 06:06:43;;;;;;;16.32;5.12;;;;;;;4.78;94.90;100720.95;2947769;79;21569;-88
2022/12/27 06:10:44;;;;;;;13.53;6.72;;;;;;;4.78;94.91;100725.39;2868274;79;21562;-87
2022/12/27 06:14:45;;;;;;;7.22;4.25;;;;;;;4.77;94.71;100744.29;2933781;79;21007;-88
2022/12/27 06:18:47;;;;;;;7.78;3.05;;;;;;;4.74;94.15;100730.44;2923161;79;21023;-87
2022/12/27 06:22:48;;;;;;;4.33;1.95;;;;;;;4.75;94.05;100733.45;2953775;79;20967;-87
2022/12/27 06:26:50;;;;;;;8.35;2.70;;;;;;;4.79;94.16;100762.20;2863672;81;20987;-88
2022/12/27 06:30:51;;;;;;;8.05;2.58;;;;;;;4.76;94.36;100761.52;2909104;81;21006;-87
2022/12/27 06:34:52;;;;;;;4.90;1.60;;;;;;;4.75;94.61;100773.00;2895304;79;21018;-87
2022/12/27 06:38:53;;;;;;;4.58;2.00;;;;;;;4.70;94.55;100779.32;2890427;81;21011;-87
2022/12/27 06:42:55;;;;;;;5.28;1.90;;;;;;;4.66;94.47;100797.53;2819975;81;20979;-88
2022/12/27 06:46:56;;;;;;;11.03;2.20;;;;;;;4.61;94.52;100802.63;2947726;79;21026;-87
2022/12/27 06:50:58;;;;;;;9.20;2.52;;;;;;;4.59;94.27;100798.78;2840061;79;20995;-88
2022/12/27 06:54:59;;;;;;;2.37;1.70;;;;;;;4.55;94.50;100807.77;2981392;77;21066;-88
2022/12/27 06:59:00;;;;;;;4.03;1.77;;;;;;;4.56;94.33;100814.73;2991581;77;21619;-88
2022/12/27 07:03:03;;;;;;;18.20;3.12;;;;;;;4.54;93.95;100810.02;2989762;79;20991;-88
2022/12/27 07:07:05;;;;;;;5.70;2.25;;;;;;;4.50;93.75;100815.88;2987000;77;20994;-88
2022/12/27 07:11:10;;;;;;;6.35;2.22;;;;;;;4.46;93.92;100814.33;3007745;77;21003;-88
2022/12/27 07:15:11;;;;;;;3.47;1.80;;;;;;;4.45;93.80;100823.16;3004602;77;21548;-88
2022/12/27 07:19:13;;;;;;;15.38;2.42;;;;;;;4.37;93.62;100831.42;2926989;79;21014;-88
2022/12/27 07:23:14;;;;;;;2.15;1.45;;;;;;;4.34;93.33;100822.35;3003581;78;21035;-88
2022/12/27 07:27:16;;;;;;;3.77;1.47;;;;;;;4.35;93.11;100816.61;2949286;79;22161;-87
2022/12/27 07:31:21;;;;;;;9.15;1.95;;;;;;;4.41;92.87;100831.66;2959458;78;21014;-87
2022/12/27 07:35:23;;;;;;;4.22;1.62;;;;;;;4.42;92.51;100824.15;3005698;77;21537;-87
2022/12/27 07:39:24;;;;;;;7.75;3.05;;;;;;;4.45;92.10;100827.56;2952706;79;20982;-87
2022/12/27 07:43:32;;;;;;;3.40;1.57;;;;;;;4.53;92.12;100833.34;3011606;78;21058;-87
2022/12/27 07:47:33;;;;;;;3.33;2.02;;;;;;;4.55;91.42;100853.39;2979534;79;21035;-88
2022/12/27 07:51:35;;;;;;;5.33;1.87;;;;;;;4.59;91.03;100851.48;2930785;79;21029;-88
2022/12/27 07:55:36;;;;;;;6.25;2.95;;;;;;;4.62;91.13;100869.77;3041758;76;21017;-89
2022/12/27 07:59:37;;;;;;;3.17;2.12;;;;;;;4.68;90.02;100856.29;2991509;78;20995;-88
2022/12/27 08:03:39;;;;;;;8.20;2.20;;;;;;;4.84;90.05;100851.60;3009631;78;21505;-88
2022/12/27 08:07:41;;;;;;;2.92;1.87;;;;;;;4.87;89.96;100860.67;3005620;78;21033;-88
2022/12/27 08:11:42;;;;;;;6.08;3.25;;;;;;;4.90;88.55;100867.11;3008634;78;21479;-88
2022/12/27 08:15:44;;;;;;;3.37;1.62;;;;;;;4.96;88.39;100872.11;2985737;77;21003;-87
2022/12/27 08:19:46;;;;;;;5.65;1.85;;;;;;;5.00;88.33;100876.29;2978738;78;21003;-88
2022/12/27 08:23:47;;;;;;;5.78;2.37;;;;;;;5.01;87.48;100873.17;2976070;79;20999;-88
2022/12/27 08:27:48;;;;;;;3.65;2.10;;;;;;;5.10;88.01;100874.05;3037361;77;21517;-87
2022/12/27 08:31:49;;;;;;;7.70;2.95;;;;;;;5.15;86.87;100869.88;2993564;77;21007;-88
2022/12/27 08:35:51;;;;;;;2.12;1.37;;;;;;;5.11;85.82;100869.17;2968486;78;21506;-89
2022/12/27 08:39:53;;;;;;;3.40;1.67;;;;;;;5.14;86.61;100882.20;3006369;77;21074;-89
2022/12/27 08:43:54;;;;;;;1.47;1.37;;;;;;;5.20;85.67;100870.49;3038290;78;21027;-88
2022/12/27 08:47:58;;;;;;;10.48;2.40;;;;;;;5.33;85.80;100870.73;3036781;78;21064;-88
2022/12/27 08:52:00;;;;;;;7.70;2.75;;;;;;;5.29;85.08;100875.30;3036227;77;21605;-88
2022/12/27 08:56:01;;;;;;;4.12;1.87;;;;;;;5.34;85.52;100887.42;2991571;78;21345;-89
2022/12/27 09:00:05;;;;;;;2.35;2.02;;;;;;;5.42;85.98;100894.02;3008221;77;21613;-88
2022/12/27 09:04:06;;;;;;;6.83;2.58;;;;;;;5.41;84.29;100874.30;3004440;78;21007;-88
2022/12/27 09:08:08;;;;;;;5.75;2.62;;;;;;;5.53;85.20;100884.69;2973362;77;21532;-89
2022/12/27 09:12:10;;;;;;;2.00;1.42;;;;;;;5.62;84.92;100884.23;2992876;77;21049;-90
2022/12/27 09:16:18;;;;;;;3.83;1.37;;;;;;;5.71;84.29;100889.02;2906936;78;21558;-89
2022/12/27 09:20:19;;;;;;;2.62;1.95;;;;;;;5.74;84.94;100880.55;3003057;77;21526;-90
2022/12/27 09:24:21;;;;;;;4.35;2.15;;;;;;;5.90;83.66;100888.06;3004597;77;20978;-85
2022/12/27 09:28:22;;;;;;;4.40;1.40;;;;;;;5.98;84.04;100879.73;2985590;78;20987;-91
2022/12/27 09:32:26;;;;;;;3.92;1.92;;;;;;;5.84;82.74;100861.51;3001153;77;21493;-92
2022/12/27 09:36:29;;;;;;;2.12;1.92;;;;;;;5.74;84.46;100858.98;2985913;79;21615;-92
2022/12/27 09:40:30;;;;;;;4.65;1.17;;;;;;;5.76;83.19;100891.44;2975360;77;21565;-92
2022/12/27 09:44:40;;;;;;;8.70;2.00;;;;;;;5.81;83.15;100889.40;3006622;78;21061;-92
2022/12/27 09:48:41;;;;;;;3.87;1.90;;;;;;;5.86;82.36;100905.84;3000040;79;21058;-92
2022/12/27 09:53:03;;;;;;;4.37;1.87;;;;;;;5.94;83.08;100918.65;3003630;78;21502;-92
2022/12/27 09:57:13;;;;;;;3.22;1.45;;;;;;;5.93;84.42;100909.02;3016159;78;21054;-91
2022/12/27 10:01:32;;;;;;;3.58;1.77;;;;;;;6.03;83.90;100910.74;3036492;78;21086;-92
2022/12/27 10:05:37;;;;;;;4.17;1.87;;;;;;;6.01;81.60;100912.62;2942925;79;21451;-92
2022/12/27 10:09:56;;;;;;;4.42;2.15;;;;;;;6.07;83.15;100909.64;2947088;79;21511;-92
2022/12/27 10:14:03;;;;;;;3.87;1.62;;;;;;;6.04;81.99;100923.02;2929693;79;21303;-92
2022/12/27 10:18:09;;;;;;;2.20;1.75;;;;;;;6.04;81.87;100912.94;2937344;79;21082;-92
2022/12/27 10:22:25;;;;;;;6.12;2.40;;;;;;;6.07;82.67;100901.72;2941141;79;21661;-93
2022/12/27 10:26:26;;;;;;;6.50;2.80;;;;;;;6.06;81.10;100917.18;2941622;79;21042;-92
2022/12/27 10:30:30;;;;;;;3.50;1.62;;;;;;;6.11;83.12;100919.13;2965499;79;21058;-92
2022/12/27 10:34:31;;;;;;;7.35;2.92;;;;;;;6.11;80.99;100895.36;2937105;79;21046;-92
2022/12/27 10:38:34;;;;;;;13.48;2.67;;;;;;;6.27;82.45;100906.41;2969003;79;21098;-92
2022/12/27 10:43:05;;;;;;;6.08;1.95;;;;;;;6.13;80.29;100909.34;3006231;78;21415;-92
2022/12/27 10:47:07;;;;;;;1.92;1.37;;;;;;;6.27;83.21;100922.25;2926153;80;21039;-91
2022/12/27 10:51:10;;;;;;;5.62;2.77;;;;;;;6.37;83.73;100905.44;2913808;80;21019;-93
2022/12/27 10:55:35;;;;;;;3.58;2.22;;;;;;;6.47;83.46;100896.08;2932630;79;21058;-93
2022/12/27 10:59:36;;;;;;;4.25;2.25;;;;;;;6.43;82.67;100908.60;2943939;79;21049;-93
2022/12/27 11:03:37;;;;;;;3.40;2.33;;;;;;;6.47;82.41;100914.58;2897657;81;20987;-94
2022/12/27 11:07:39;;;;;;;3.62;1.52;;;;;;;6.52;84.01;100913.02;2912191;81;21047;-94
2022/12/27 11:11:40;;;;;;;5.45;3.00;;;;;;;6.42;81.36;100924.08;2948156;80;21070;-93
2022/12/27 11:15:45;;;;;;;2.80;1.77;;;;;;;6.40;81.22;100915.87;2941127;80;20991;-93
2022/12/27 11:19:47;;;;;;;3.10;1.85;;;;;;;6.42;81.99;100945.22;2933004;80;21157;-94
2022/12/27 11:23:58;;;;;;;2.22;1.95;;;;;;;6.52;83.43;100937.64;3013062;78;20995;-93
2022/12/27 11:28:08;;;;;;;3.52;1.82;;;;;;;6.48;80.42;100926.86;3028417;78;21455;-93
2022/12/27 11:32:09;;;;;;;3.98;2.17;;;;;;;6.44;80.10;100937.22;3021503;78;21031;-94
2022/12/27 11:36:12;;;;;;;3.27;1.90;;;;;;;6.50;81.32;100943.97;3024329;78;21150;-93
2022/12/27 11:40:29;;;;;;;2.37;1.17;;;;;;;6.69;80.47;100938.06;2967183;78;20987;-94
2022/12/27 11:44:38;;;;;;;2.45;1.77;;;;;;;6.75;79.59;100954.03;2997431;79;21074;-94
2022/12/27 11:48:43;;;;;;;5.75;1.75;;;;;;;6.82;80.78;100953.23;3030420;77;21039;-94
2022/12/27 11:52:59;;;;;;;2.57;2.00;;;;;;;6.78;80.75;100943.31;3033251;78;21080;-94
2022/12/27 11:57:31;;;;;;;4.87;2.33;;;;;;;6.85;81.11;100957.89;3031363;77;21034;-93
2022/12/27 12:02:08;;;;;;;7.58;1.80;;;;;;;6.90;79.32;100951.48;2964866;79;21517;-94
2022/12/27 12:06:24;;;;;;;7.90;2.37;;;;;;;6.94;79.65;100943.30;2965660;78;21281;-93
2022/12/27 12:11:10;;;;;;;6.45;2.00;;;;;;;6.81;78.26;100937.84;2987721;79;21008;-94
2022/12/27 12:15:23;;;;;;;3.55;1.85;;;;;;;6.76;79.21;100947.80;2964938;79;21110;-93
2022/12/27 12:19:44;;;;;;;3.75;2.00;;;;;;;6.65;78.38;100947.08;2986055;78;21007;-93
2022/12/27 12:24:28;;;;;;;4.05;1.77;;;;;;;6.66;79.36;100947.45;2985639;79;21077;-95
2022/12/27 12:29:27;;;;;;;2.37;1.67;;;;;;;6.67;79.36;100958.42;2984265;78;21051;-94
2022/12/27 12:34:06;;;;;;;2.15;1.40;;;;;;;6.68;79.22;100958.83;2989852;78;20995;-93
2022/12/27 12:38:28;;;;;;;1.92;1.82;;;;;;;6.65;78.96;100962.94;2991036;78;21084;-93
2022/12/27 12:42:51;;;;;;;6.95;2.12;;;;;;;6.68;80.77;100972.50;2985449;78;21030;-93
2022/12/27 12:47:13;;;;;;;2.27;1.45;;;;;;;6.55;80.53;100969.67;2986054;78;21081;-93
2022/12/27 12:51:41;;;;;;;4.95;2.25;;;;;;;6.55;82.32;100982.41;2987167;78;21023;-93
2022/12/27 12:56:37;;;;;;;4.35;2.65;;;;;;;6.53;82.72;100990.05;2991937;78;21070;-92
2022/12/27 13:01:27;;;;;;;3.55;2.87;;;;;;;6.42;84.05;100983.54;2985033;79;21053;-93
2022/12/27 13:05:58;;;;;;;3.65;2.37;;;;;;;6.36;83.23;100981.23;2985830;79;21006;-93
2022/12/27 13:10:41;;;;;;;3.27;1.40;;;;;;;6.41;85.63;100977.87;3029034;78;21052;-94
2022/12/27 13:15:07;;;;;;;3.27;1.80;;;;;;;6.40;84.23;100974.01;2999231;78;21054;-93
2022/12/27 13:20:05;;;;;;;7.65;3.22;;;;;;;6.39;84.31;100966.53;2971804;79;21079;-93
2022/12/27 13:24:27;;;;;;;5.17;1.92;;;;;;;6.42;84.43;100972.13;2863238;81;21404;-93
2022/12/27 13:28:45;;;;;;;6.92;2.15;;;;;;;6.51;83.02;100967.66;2841155;83;21049;-93
2022/12/27 13:33:13;;;;;;;3.60;2.00;;;;;;;6.56;82.60;100974.03;2840165;82;21061;-94
2022/12/27 13:37:48;;;;;;;6.58;2.77;;;;;;;6.64;81.38;100976.26;2841010;83;21063;-94
2022/12/27 13:42:12;;;;;;;3.92;1.80;;;;;;;6.63;82.71;100989.93;2843245;82;21042;-94
2022/12/27 13:46:50;;;;;;;2.92;2.33;;;;;;;6.63;82.22;100987.77;2841713;82;21057;-93
2022/12/27 13:51:09;;;;;;;;;;;;;;;6.63;82.34;100990.41;2842273;83;21621;-95
2022/12/27 13:55:34;;;;;;;4.03;1.95;;;;;;;6.60;82.04;100992.75;2832061;81;20144;-94
2022/12/27 13:59:44;;;;;;;4.83;1.67;;;;;;;6.43;81.58;100997.62;2850567;81;21106;-93
2022/12/27 14:04:08;;;;;;;6.28;2.30;;;;;;;6.39;82.55;100988.99;2869102;79;21039;-94
2022/12/27 14:08:18;;;;;;;4.70;2.33;;;;;;;6.39;82.80;100994.28;2977526;79;21019;-93
2022/12/27 14:12:50;;;;;;;5.87;2.85;;;;;;;6.38;82.79;100995.22;2967368;79;21495;-94
2022/12/27 14:17:29;;;;;;;3.25;1.65;;;;;;;6.39;83.14;100995.59;2968179;79;21090;-94
2022/12/27 14:22:26;;;;;;;3.83;2.47;;;;;;;6.37;82.75;101002.76;2972067;79;21014;-94
2022/12/27 14:26:56;;;;;;;5.58;2.55;;;;;;;6.36;82.97;100993.13;2972040;79;21183;-94
2022/12/27 14:31:40;;;;;;;4.70;3.47;;;;;;;6.33;82.87;101001.22;2967479;79;21058;-94
2022/12/27 14:36:01;;;;;;;5.90;2.90;;;;;;;6.35;81.96;101009.05;2961201;80;21039;-94
2022/12/27 14:40:41;;;;;;;3.02;2.40;;;;;;;6.36;82.00;101010.75;2944965;79;21029;-94
2022/12/27 14:45:16;;;;;;;6.20;2.70;;;;;;;6.37;82.50;101025.22;2970705;79;21031;-94
2022/12/27 14:50:01;;;;;;;3.08;2.45;;;;;;;6.36;82.18;101038.50;2984207;78;21038;-94
2022/12/27 14:54:40;;;;;;;5.15;2.50;;;;;;;6.37;83.43;101055.61;2953067;79;21023;-94
2022/12/27 14:59:24;;;;;;;4.28;2.62;;;;;;;6.35;84.25;101062.77;2969779;78;20976;-94
2022/12/27 15:03:45;;;;;;;6.65;4.03;;;;;;;6.35;84.43;101066.73;2994540;76;21080;-93
2022/12/27 15:08:08;;;;;;;7.47;3.77;;;;;;;6.26;84.53;101065.87;2957929;79;21027;-92
2022/12/27 15:12:37;;;;;;;12.43;3.50;;;;;;;6.29;84.10;101059.13;2967883;79;20992;-91
2022/12/27 15:16:49;;;;;;;6.15;3.58;;;;;;;6.24;84.99;101057.17;2970017;79;21016;-92
2022/12/27 15:21:08;;;;;;;5.90;4.20;;;;;;;6.14;85.70;101060.30;2971702;78;21079;-89
2022/12/27 15:25:21;;;;;;;17.42;4.92;;;;;;;6.04;86.24;101053.75;2966256;79;21055;-90
2022/12/27 15:29:46;;;;;;;7.53;4.25;;;;;;;6.03;85.21;101052.53;2981686;79;21149;-90
2022/12/27 15:34:11;;;;;;;10.82;4.78;;;;;;;5.94;84.29;101049.86;2858452;78;21078;-81
2022/12/27 15:38:17;;;;;;;8.48;4.67;;;;;;;5.93;85.78;101059.55;2804208;82;29371;-81
2022/12/27 15:42:27;;;;;;;8.98;5.60;;;;;;;5.80;86.54;101061.95;2797390;83;21003;-81
2022/12/27 15:46:56;;;;;;;9.33;7.08;;;;;;;5.78;86.62;101065.13;2801380;83;21065;-81
2022/12/27 15:51:41;;;;;;;11.60;7.30;;;;;;;5.71;86.65;101072.49;2787619;83;21083;-81
2022/12/27 15:56:05;;;;;;;9.40;4.22;;;;;;;5.66;87.07;101074.96;2830715;82;21047;-81
2022/12/27 16:00:26;;;;;;;5.37;2.87;;;;;;;5.66;87.13;101077.60;2787214;83;21535;-81
2022/12/27 16:04:53;;;;;;;12.58;3.62;;;;;;;5.58;87.03;101077.52;2821332;82;21034;-81
2022/12/27 16:09:24;;;;;;;4.78;3.72;;;;;;;5.56;86.86;101083.79;2798057;83;21066;-81
2022/12/27 16:13:40;;;;;;;6.20;3.17;;;;;;;5.48;87.43;101086.80;2818974;82;21541;-81
2022/12/27 16:17:54;;;;;;;7.15;3.25;;;;;;;5.50;88.21;101092.01;2825991;82;21573;-81
2022/12/27 16:21:55;;;;;;;6.90;4.60;;;;;;;5.52;88.71;101094.11;2825100;82;21011;-81
2022/12/27 16:26:34;;;;;;;7.87;4.72;;;;;;;5.56;89.11;101095.22;2804844;82;22271;-81
2022/12/27 16:30:43;;;;;;;7.40;4.85;;;;;;;5.55;89.86;101089.55;2801927;83;21103;-81
2022/12/27 16:34:47;;;;;;;12.37;5.37;;;;;;;5.58;89.58;101088.08;2808452;82;21539;-82
2022/12/27 16:39:12;;;;;;;9.95;5.12;;;;;;;5.61;89.76;101088.41;2847095;82;21547;-81
2022/12/27 16:43:23;;;;;;;7.45;4.20;;;;;;;5.55;90.29;101084.27;2830807;82;21613;-81
2022/12/27 16:47:58;;;;;;;24.87;6.65;;;;;;;5.48;90.52;101084.64;2798750;83;21070;-82
2022/12/27 16:52:33;;;;;;;9.58;6.72;;;;;;;5.43;90.28;101094.08;2833253;82;21618;-81
2022/12/27 16:56:36;;;;;;;11.50;6.37;;;;;;;5.35;90.35;101093.60;2819978;83;21561;-81
2022/12/27 17:00:43;;;;;;;12.90;7.28;;;;;;;5.23;90.49;101089.75;2796226;83;20999;-82
2022/12/27 17:04:57;;;;;;;15.23;6.17;;;;;;;5.18;90.98;101091.28;2830072;82;21022;-82
2022/12/27 17:09:15;;;;;;;10.48;5.25;;;;;;;5.09;91.51;101087.73;2808038;83;20999;-81
2022/12/27 17:13:46;;;;;;;31.02;7.33;;;;;;;5.00;91.87;101094.28;2823625;82;21018;-81
2022/12/27 17:17:52;;;;;;;9.93;7.00;;;;;;;4.99;92.06;101098.72;2833493;83;21046;-82
2022/12/27 17:21:58;;;;;;;8.80;4.90;;;;;;;5.01;92.18;101095.99;2827311;83;21051;-82
2022/12/27 17:26:22;;;;;;;;;;;;;;;4.94;92.39;101102.03;2803433;82;21074;-81
2022/12/27 17:30:47;;;;;;;9.80;6.33;;;;;;;4.80;92.43;101103.11;2836473;82;20092;-81
2022/12/27 17:35:22;;;;;;;17.95;8.68;;;;;;;4.71;91.73;101109.16;2835537;81;21031;-81
2022/12/27 17:40:14;;;;;;;11.70;6.40;;;;;;;4.71;90.81;101117.07;2830588;82;21007;-82
2022/12/27 17:44:38;;;;;;;15.70;7.28;;;;;;;4.65;89.82;101109.44;2793538;83;21038;-82
2022/12/27 17:48:41;;;;;;;11.57;7.28;;;;;;;4.55;89.17;101102.88;2791930;83;21081;-82
2022/12/27 18:02:05;;;;;;;11.12;4.50;;;;;;;4.35;89.24;101101.95;2789348;83;22265;-82
2022/12/27 18:06:06;;;;;;;9.10;4.70;;;;;;;4.29;89.00;101096.48;2793229;82;21388;-83
2022/12/27 18:10:24;;;;;;;16.87;6.30;;;;;;;4.26;89.07;101098.38;2802284;83;21637;-82
2022/12/27 18:14:29;;;;;;;9.03;6.05;;;;;;;4.21;89.06;101101.68;2793809;83;21123;-82
2022/12/27 18:18:33;;;;;;;7.23;5.37;;;;;;;4.20;88.80;101106.55;2805822;83;21594;-82
2022/12/27 18:22:35;;;;;;;7.30;5.28;;;;;;;4.18;88.66;101109.72;2802162;82;21019;-82
2022/12/27 18:26:39;;;;;;;9.35;5.10;;;;;;;4.05;88.68;101123.86;2780014;83;21018;-81
2022/12/27 18:30:49;;;;;;;8.35;5.10;;;;;;;4.02;88.85;101126.59;2792493;82;21460;-81
2022/12/27 18:34:55;;;;;;;10.35;4.42;;;;;;;3.96;89.07;101133.83;2838353;81;21017;-81
2022/12/27 18:39:01;;;;;;;5.83;4.95;;;;;;;3.92;89.28;101133.56;2866688;81;21031;-81
2022/12/27 18:43:03;;;;;;;11.12;5.92;;;;;;;3.85;90.44;101134.73;2859767;81;20979;-83
2022/12/27 18:47:05;;;;;;;3.90;3.30;;;;;;;3.86;91.23;101141.23;2796739;83;21949;-81
2022/12/27 18:51:06;;;;;;;8.05;3.52;;;;;;;3.82;93.16;101138.78;2849517;82;21029;-81
2022/12/27 18:55:19;;;;;;;7.55;4.33;;;;;;;3.89;93.77;101140.71;2797868;83;21617;-81
2022/12/27 18:59:27;;;;;;;9.20;4.95;;;;;;;3.94;93.47;101140.09;2791172;83;21048;-82
2022/12/27 19:03:30;;;;;;;5.33;3.98;;;;;;;4.02;92.68;101144.57;2767899;83;21078;-82
2022/12/27 19:07:33;;;;;;;10.82;4.50;;;;;;;4.08;92.55;101137.73;2711493;82;21495;-81
2022/12/27 19:11:35;;;;;;;8.30;5.15;;;;;;;4.13;92.67;101138.42;2779972;83;21066;-81
2022/12/27 19:15:41;;;;;;;12.80;6.95;;;;;;;4.21;92.48;101134.59;2783600;83;21007;-80
2022/12/27 19:19:47;;;;;;;7.28;5.70;;;;;;;4.28;91.67;101138.23;2775729;82;21003;-82
2022/12/27 19:23:48;;;;;;;8.03;5.17;;;;;;;4.40;90.71;101132.91;2812525;82;21011;-81
2022/12/27 19:28:10;;;;;;;12.37;6.28;;;;;;;4.38;89.92;101128.17;2814100;82;21072;-81
2022/12/27 19:32:14;;;;;;;7.95;5.78;;;;;;;4.41;89.69;101127.16;2814019;83;21432;-81
2022/12/27 19:36:16;;;;;;;6.47;4.75;;;;;;;4.41;89.29;101128.48;2874687;81;21034;-81
2022/12/27 19:40:17;;;;;;;6.25;4.90;;;;;;;4.38;89.29;101133.88;2836970;81;21038;-81
2022/12/27 19:44:19;;;;;;;7.20;4.60;;;;;;;4.40;89.16;101135.55;2832818;82;21068;-81
2022/12/27 19:48:21;;;;;;;18.42;5.08;;;;;;;4.48;89.09;101142.25;2788472;82;21117;-81
2022/12/27 19:52:26;;;;;;;4.95;3.85;;;;;;;4.55;88.58;101139.77;2835972;81;21100;-81
2022/12/27 19:56:27;;;;;;;6.10;4.00;;;;;;;4.63;88.37;101144.23;2862373;81;21340;-81
2022/12/27 20:00:29;;;;;;;5.65;3.65;;;;;;;4.72;88.59;101140.34;2833203;82;21574;-81
2022/12/27 20:04:30;;;;;;;5.75;3.45;;;;;;;4.81;87.95;101143.04;2927479;79;21070;-83
2022/12/27 20:08:42;;;;;;;5.35;3.58;;;;;;;4.97;87.98;101140.57;2970028;79;21029;-84
2022/12/27 20:12:43;;;;;;;6.37;4.60;;;;;;;5.05;87.15;101149.02;2963551;79;21098;-83
2022/12/27 20:16:45;;;;;;;8.55;3.50;;;;;;;5.12;86.63;101152.23;2972396;79;21027;-85
2022/12/27 20:20:47;;;;;;;7.60;3.75;;;;;;;5.14;86.31;101145.11;2972070;79;21573;-85
2022/12/27 20:24:50;;;;;;;9.95;3.55;;;;;;;5.18;85.78;101139.20;2965525;79;20974;-84
2022/12/27 20:28:51;;;;;;;4.10;2.62;;;;;;;5.23;85.78;101140.72;2956901;79;21075;-84
2022/12/27 20:32:53;;;;;;;4.62;3.58;;;;;;;5.26;85.60;101139.73;2854784;80;21001;-84
2022/12/27 20:36:54;;;;;;;2.90;2.37;;;;;;;5.28;85.80;101141.35;2967958;79;21020;-85
2022/12/27 20:40:56;;;;;;;3.83;3.30;;;;;;;5.27;85.35;101135.69;2935217;79;21023;-84
2022/12/27 20:44:57;;;;;;;7.20;4.00;;;;;;;5.26;85.36;101136.61;2946291;79;20967;-83
2022/12/27 20:49:00;;;;;;;4.70;3.42;;;;;;;5.29;84.68;101139.11;2879038;80;21549;-84
2022/12/27 20:53:01;;;;;;;7.33;2.77;;;;;;;5.28;84.29;101142.67;2973093;79;21021;-83
2022/12/27 20:57:02;;;;;;;7.72;2.77;;;;;;;5.28;83.86;101151.06;2933468;79;21014;-83
2022/12/27 21:01:10;;;;;;;4.45;3.40;;;;;;;5.27;83.99;101141.44;2950768;79;21593;-83
2022/12/27 21:05:12;;;;;;;8.00;4.42;;;;;;;5.27;83.70;101146.23;2967728;79;21007;-83
2022/12/27 21:09:13;;;;;;;12.35;6.35;;;;;;;5.18;84.09;101145.80;2950218;79;21003;-83
2022/12/27 21:13:14;;;;;;;28.60;13.35;;;;;;;5.17;84.23;101141.00;2967555;79;21011;-83
2022/12/27 21:17:16;;;;;;;12.65;9.35;;;;;;;5.09;84.63;101140.03;2978798;79;21070;-83
2022/12/27 21:21:21;;;;;;;13.25;8.05;;;;;;;5.02;84.99;101141.25;2943339;79;21593;-83
2022/12/27 21:25:23;;;;;;;6.37;4.87;;;;;;;4.90;85.58;101143.94;2972297;79;20995;-83
2022/12/27 21:29:24;;;;;;;7.35;3.55;;;;;;;4.79;85.68;101134.34;2863370;79;21573;-83